עמוד ראשי
METAR-TAF:

METAR-TAF

שדות תעופה :

Grand Turk Island, איי טרקס וקייקוס

קו רוחב: 21-26-40N, קו אורך: 071-08-32W, גובה: 4מטר

METAR: חסר

זמן: 22:01 (02:01 UTC)

תחזית

הדו"ח נערך לפני 2 שעות ו 1דקות, בשעה 00:00 UTC
תחזית בתוקף מ 13 ב 00 UTC עד 13 ב 24 UTC
רוח 10קשר מכיוון מזרח
ראות 10 קילומטר או יותר
מעט עננים בגובה 2500רגל
עננים פזורים בגובה 10000רגל
עננים בינוניים בגובה 26000רגל
יעשה מ
13 ב 14 UTC עד 13 ב 16 UTC
רוח 16קשר מכיוון מזרח/דרום-מזרח

TAF: MBGT 130000Z 1300/1324 08010KT 9999 FEW025 SCT100 BKN260 BECMG 1314/1316 11016KT

תצפיות ותחזיות מזג אוויר לגבי יותר מ- 4,000 שדות תעופה ברחבי העולם. דוחות METAR ו- TAF.

התחנות הזמינות מסומנות בנקודות צהובות ואדומות על גבי המפה.

העבר את העכבר לנקודה הצבעונית על מנת לראות את שם התחנה.

לאחר מכן, לחץ כדי לראות את תוכן ואת תחזיות מזג האוויר.

כדי לשנות את המפה: לחץ על הכפתורים הירוקים עם הפלוס השחור כדי להתקרב; על הכפתור הירוק עם המקף כדי להתרחק; או בחיצים הירוקים למפות סמוכות.


METAR-TAF: